Time;durP1;ratioP1;P1;durP2;ratioP2;P2;SDS_P1;SDS_P2;PMS_P1;PMS_P2;Temp;Humidity;BMP_temperature;BMP_pressure;BME280_temperature;BME280_humidity;BME280_pressure;Samples;Min_cycle;Max_cycle;Signal;HPM_P1;HPM_P2
2023/08/16 00:04:14;;;;;;;7.10;2.55;;;;;19.40;101407.00;;;;10236898;28;20226;-78
2023/08/16 00:09:17;;;;;;;6.03;2.10;;;;;19.30;101412.00;;;;10260828;28;20214;-77
2023/08/16 00:14:18;;;;;;;3.53;2.47;;;;;19.20;101411.00;;;;10272171;28;20278;-77
2023/08/16 00:19:20;;;;;;;7.68;2.28;;;;;19.10;101418.00;;;;10266165;28;20239;-77
2023/08/16 00:24:21;;;;;;;5.22;2.50;;;;;19.10;101410.00;;;;10264262;28;20792;-78
2023/08/16 00:29:22;;;;;;;6.10;2.10;;;;;19.00;101416.00;;;;10246802;28;20211;-76
2023/08/16 00:34:24;;;;;;;2.08;1.92;;;;;18.90;101407.00;;;;10249678;28;20217;-77
2023/08/16 00:39:25;;;;;;;4.50;2.40;;;;;18.90;101407.00;;;;10251825;28;20675;-75
2023/08/16 00:44:27;;;;;;;6.43;2.30;;;;;18.80;101404.00;;;;10245484;28;20227;-77
2023/08/16 00:49:30;;;;;;;8.00;2.50;;;;;18.80;101410.00;;;;10249597;28;20235;-78
2023/08/16 00:54:31;;;;;;;4.22;2.45;;;;;18.70;101415.00;;;;10267654;28;20460;-77
2023/08/16 00:59:33;;;;;;;4.82;2.50;;;;;18.80;101415.00;;;;10243789;28;20274;-76
2023/08/16 01:04:34;;;;;;;8.30;2.63;;;;;18.80;101412.00;;;;10230536;28;20207;-77
2023/08/16 01:09:36;;;;;;;7.07;2.78;;;;;18.80;101418.00;;;;10274600;28;20208;-77
2023/08/16 01:14:50;;;;;;;7.72;3.05;;;;;18.80;101416.00;;;;10247460;28;20206;-78
2023/08/16 01:19:56;;;;;;;6.15;2.88;;;;;18.90;101421.00;;;;10242325;28;20220;-77
2023/08/16 01:25:10;;;;;;;4.57;2.45;;;;;18.80;101415.00;;;;10248237;28;20759;-76
2023/08/16 01:30:13;;;;;;;7.00;2.63;;;;;18.70;101424.00;;;;10245061;28;20261;-77
2023/08/16 01:35:15;;;;;;;3.38;2.53;;;;;18.70;101433.00;;;;10258851;28;20215;-77
2023/08/16 01:40:18;;;;;;;3.63;2.35;;;;;18.70;101440.00;;;;10224809;28;20216;-77
2023/08/16 01:45:20;;;;;;;6.20;2.78;;;;;18.70;101447.00;;;;10261817;28;20259;-78
2023/08/16 01:50:23;;;;;;;6.15;3.20;;;;;18.70;101442.00;;;;10259851;28;20223;-77
2023/08/16 01:55:24;;;;;;;5.20;3.22;;;;;18.60;101428.00;;;;10241183;28;20246;-77
2023/08/16 02:00:26;;;;;;;7.18;3.67;;;;;18.60;101426.00;;;;10262628;28;20645;-77
2023/08/16 02:05:27;;;;;;;7.25;3.67;;;;;18.70;101435.00;;;;10244021;28;20215;-76
2023/08/16 02:10:28;;;;;;;10.98;4.05;;;;;18.60;101425.00;;;;10258946;28;20207;-76
2023/08/16 02:15:30;;;;;;;8.10;3.85;;;;;18.60;101423.00;;;;10261382;28;21820;-78
2023/08/16 02:20:31;;;;;;;7.07;3.85;;;;;18.60;101413.00;;;;10235514;28;20227;-77
2023/08/16 02:25:33;;;;;;;6.70;3.90;;;;;18.50;101414.00;;;;10247072;28;21296;-77
2023/08/16 02:30:35;;;;;;;7.65;4.03;;;;;18.40;101419.00;;;;10243975;28;21295;-77
2023/08/16 02:35:36;;;;;;;12.82;4.22;;;;;18.40;101413.00;;;;10257755;28;20199;-77
2023/08/16 02:40:38;;;;;;;4.90;4.10;;;;;18.40;101416.00;;;;10265937;28;20556;-77
2023/08/16 02:45:39;;;;;;;6.03;3.53;;;;;18.50;101415.00;;;;10247485;28;20370;-77
2023/08/16 02:50:42;;;;;;;6.05;3.80;;;;;18.50;101417.00;;;;10225684;28;21670;-78
2023/08/16 02:55:44;;;;;;;6.80;3.88;;;;;18.50;101419.00;;;;10261551;28;20214;-77
2023/08/16 03:00:50;;;;;;;6.18;3.53;;;;;18.50;101428.00;;;;10248502;28;20299;-76
2023/08/16 03:05:52;;;;;;;5.35;3.83;;;;;18.50;101428.00;;;;10264609;28;20211;-77
2023/08/16 03:10:53;;;;;;;6.55;3.90;;;;;18.40;101427.00;;;;10266541;28;20654;-77
2023/08/16 03:15:55;;;;;;;8.35;4.28;;;;;18.40;101423.00;;;;10243819;28;20668;-76
2023/08/16 03:20:56;;;;;;;7.75;3.88;;;;;18.40;101423.00;;;;10258330;28;20224;-78
2023/08/16 03:25:58;;;;;;;7.60;4.25;;;;;18.30;101426.00;;;;10247770;28;20207;-76
2023/08/16 03:30:59;;;;;;;5.47;3.67;;;;;18.20;101427.00;;;;10240523;28;20789;-77
2023/08/16 03:36:02;;;;;;;9.48;4.20;;;;;18.10;101435.00;;;;10240625;28;20214;-76
2023/08/16 03:41:04;;;;;;;5.43;3.80;;;;;18.00;101435.00;;;;10224488;28;20306;-76
2023/08/16 03:46:05;;;;;;;8.43;4.05;;;;;17.90;101435.00;;;;10251358;28;20222;-78
2023/08/16 03:51:08;;;;;;;4.57;3.50;;;;;17.80;101435.00;;;;10265567;28;20261;-75
2023/08/16 03:56:09;;;;;;;6.15;4.18;;;;;17.80;101437.00;;;;10261450;28;20269;-78
2023/08/16 04:01:11;;;;;;;4.47;3.90;;;;;17.80;101430.00;;;;10264279;28;20219;-76
2023/08/16 04:06:13;;;;;;;7.78;4.03;;;;;17.80;101427.00;;;;10265281;28;21634;-80
2023/08/16 04:11:14;;;;;;;8.35;4.82;;;;;17.80;101435.00;;;;10234885;28;20693;-76
2023/08/16 04:16:16;;;;;;;6.05;3.60;;;;;17.70;101441.00;;;;10269213;28;21060;-77
2023/08/16 04:21:17;;;;;;;7.57;3.97;;;;;17.70;101441.00;;;;10269738;28;20393;-76
2023/08/16 04:26:19;;;;;;;7.40;3.85;;;;;17.80;101436.00;;;;10251396;28;20211;-76
2023/08/16 04:31:20;;;;;;;7.07;4.07;;;;;17.80;101430.00;;;;10230976;28;20207;-77
2023/08/16 04:36:22;;;;;;;6.40;3.97;;;;;17.70;101435.00;;;;10246017;28;20325;-76
2023/08/16 04:41:23;;;;;;;7.78;3.75;;;;;17.80;101433.00;;;;10246966;28;20219;-77
2023/08/16 04:46:25;;;;;;;5.75;3.42;;;;;17.80;101440.00;;;;10246183;28;20211;-77
2023/08/16 04:51:26;;;;;;;7.30;3.85;;;;;17.90;101426.00;;;;10241841;28;20238;-77
2023/08/16 04:56:28;;;;;;;9.10;3.92;;;;;17.90;101433.00;;;;10243567;28;20223;-77
2023/08/16 05:01:31;;;;;;;6.53;3.50;;;;;18.00;101442.00;;;;10214141;28;20361;-76
2023/08/16 05:06:34;;;;;;;6.50;3.95;;;;;18.00;101447.00;;;;10240515;28;20211;-78
2023/08/16 05:11:35;;;;;;;11.15;4.25;;;;;18.10;101443.00;;;;10246286;28;21723;-77
2023/08/16 05:16:37;;;;;;;5.80;4.55;;;;;18.30;101448.00;;;;10228273;28;20346;-77
2023/08/16 05:21:38;;;;;;;5.60;3.88;;;;;18.40;101453.00;;;;10268065;28;20250;-77
2023/08/16 05:26:39;;;;;;;9.82;5.50;;;;;18.50;101470.00;;;;10270239;28;20839;-77
2023/08/16 05:31:41;;;;;;;9.27;4.10;;;;;18.50;101470.00;;;;10227187;28;20347;-76
2023/08/16 05:36:48;;;;;;;10.55;5.10;;;;;18.60;101475.00;;;;10262863;28;20215;-77
2023/08/16 05:41:49;;;;;;;6.72;3.60;;;;;18.70;101472.00;;;;10263135;28;20227;-78
2023/08/16 05:46:51;;;;;;;11.32;5.75;;;;;18.60;101474.00;;;;10258703;28;20242;-77
2023/08/16 05:51:52;;;;;;;12.48;6.13;;;;;18.60;101470.00;;;;10267068;28;20239;-76
2023/08/16 05:56:53;;;;;;;7.00;5.18;;;;;18.70;101467.00;;;;10248270;28;20207;-77
2023/08/16 06:01:54;;;;;;;9.65;6.57;;;;;18.60;101472.00;;;;10266359;28;21782;-78
2023/08/16 06:06:56;;;;;;;11.38;6.47;;;;;18.60;101475.00;;;;10261111;28;21168;-78
2023/08/16 06:11:57;;;;;;;12.15;7.03;;;;;18.90;101475.00;;;;10242536;28;20218;-78
2023/08/16 06:16:58;;;;;;;10.23;6.40;;;;;19.10;101476.00;;;;10257936;28;20318;-76
2023/08/16 06:22:00;;;;;;;11.00;6.95;;;;;19.20;101477.00;;;;10260780;28;20452;-77
2023/08/16 06:27:01;;;;;;;12.65;6.78;;;;;19.40;101486.00;;;;10266530;28;20293;-77
2023/08/16 06:32:03;;;;;;;13.32;6.72;;;;;19.40;101477.00;;;;10240372;28;20322;-77
2023/08/16 06:37:05;;;;;;;10.00;7.22;;;;;19.70;101470.00;;;;10259845;28;20581;-78
2023/08/16 06:42:06;;;;;;;9.07;6.78;;;;;20.00;101475.00;;;;10257471;28;20242;-76
2023/08/16 06:47:09;;;;;;;11.48;7.60;;;;;20.30;101471.00;;;;10244213;28;20261;-78
2023/08/16 06:52:10;;;;;;;15.82;7.95;;;;;20.50;101484.00;;;;10257021;28;20204;-77
2023/08/16 06:57:11;;;;;;;10.93;7.07;;;;;20.60;101472.00;;;;10258136;28;20257;-77
2023/08/16 07:02:14;;;;;;;12.52;7.05;;;;;20.40;101471.00;;;;10260174;28;20658;-77
2023/08/16 07:07:16;;;;;;;11.70;7.30;;;;;20.50;101476.00;;;;10257902;28;20218;-79
2023/08/16 07:12:17;;;;;;;13.85;7.32;;;;;20.80;101487.00;;;;10259556;28;20210;-76
2023/08/16 07:17:18;;;;;;;12.55;7.35;;;;;21.10;101493.00;;;;10264895;28;21804;-77
2023/08/16 07:22:25;;;;;;;13.50;8.23;;;;;21.40;101498.00;;;;10248549;28;20596;-77
2023/08/16 07:27:27;;;;;;;11.63;8.27;;;;;21.50;101499.00;;;;10249841;28;20392;-78
2023/08/16 07:32:28;;;;;;;11.45;7.72;;;;;21.60;101498.00;;;;10248536;28;20712;-77
2023/08/16 07:37:31;;;;;;;12.82;8.18;;;;;21.80;101508.00;;;;10258501;28;20288;-78
2023/08/16 07:42:33;;;;;;;16.98;9.32;;;;;22.00;101521.00;;;;10242149;28;20250;-77
2023/08/16 07:47:34;;;;;;;13.23;8.65;;;;;22.10;101520.00;;;;10257467;28;21434;-77
2023/08/16 07:52:36;;;;;;;16.08;8.60;;;;;22.30;101518.00;;;;10269161;28;20211;-76
2023/08/16 07:57:37;;;;;;;15.18;9.52;;;;;22.50;101525.00;;;;10268213;28;20272;-78
2023/08/16 08:02:40;;;;;;;13.13;9.18;;;;;22.60;101525.00;;;;10256797;28;20692;-77
2023/08/16 08:08:00;;;;;;;12.02;7.90;;;;;22.60;101525.00;;;;10260139;28;21288;-78
2023/08/16 08:13:02;;;;;;;11.98;8.98;;;;;22.60;101521.00;;;;10248013;28;20204;-76
2023/08/16 08:18:04;;;;;;;15.98;8.48;;;;;22.60;101532.00;;;;10245604;28;20732;-77
2023/08/16 08:23:05;;;;;;;11.05;8.00;;;;;22.80;101524.00;;;;10246493;28;20397;-77
2023/08/16 08:28:07;;;;;;;12.48;9.05;;;;;23.20;101530.00;;;;10257439;28;20236;-77
2023/08/16 08:33:09;;;;;;;14.65;9.07;;;;;23.70;101530.00;;;;10246597;28;20997;-76
2023/08/16 08:38:10;;;;;;;13.55;8.93;;;;;24.00;101534.00;;;;10267601;28;21370;-78
2023/08/16 08:43:16;;;;;;;15.73;8.93;;;;;24.10;101531.00;;;;10261791;28;21297;-78
2023/08/16 08:48:18;;;;;;;12.75;8.75;;;;;24.10;101542.00;;;;10229694;28;20278;-78
2023/08/16 08:53:24;;;;;;;12.43;8.57;;;;;23.90;101542.00;;;;10265264;28;20897;-78
2023/08/16 08:58:27;;;;;;;15.93;9.00;;;;;23.70;101536.00;;;;10244781;28;20258;-77
2023/08/16 09:03:31;;;;;;;11.75;7.80;;;;;23.70;101536.00;;;;10263068;28;20366;-76
2023/08/16 09:08:36;;;;;;;11.18;6.78;;;;;23.70;101535.00;;;;10272198;28;20460;-78
2023/08/16 09:13:37;;;;;;;9.85;6.28;;;;;23.90;101540.00;;;;10275136;28;21369;-76
2023/08/16 09:18:47;;;;;;;8.07;6.38;;;;;24.40;101537.00;;;;10251569;28;20206;-77
2023/08/16 09:23:55;;;;;;;11.73;7.35;;;;;24.70;101534.00;;;;10247679;28;20473;-77
2023/08/16 09:29:05;;;;;;;9.68;7.68;;;;;25.10;101530.00;;;;10262436;28;20203;-77
2023/08/16 09:34:06;;;;;;;11.27;7.18;;;;;25.20;101528.00;;;;10259045;28;20957;-78
2023/08/16 09:39:09;;;;;;;7.20;6.28;;;;;25.10;101531.00;;;;10262806;28;20203;-76
2023/08/16 09:44:10;;;;;;;10.75;7.10;;;;;24.80;101540.00;;;;10265792;28;20814;-77
2023/08/16 09:49:11;;;;;;;8.93;7.40;;;;;24.60;101548.00;;;;10266303;28;20959;-77
2023/08/16 09:54:16;;;;;;;12.95;7.35;;;;;24.40;101545.00;;;;10262400;28;20214;-77
2023/08/16 09:59:18;;;;;;;11.95;7.07;;;;;25.20;101526.00;;;;10266539;28;20333;-76
2023/08/16 10:04:24;;;;;;;9.20;6.13;;;;;26.20;101528.00;;;;10265524;28;20570;-77
2023/08/16 10:09:29;;;;;;;8.98;6.40;;;;;26.90;101526.00;;;;10261062;28;21675;-78
2023/08/16 10:14:31;;;;;;;9.30;6.07;;;;;27.50;101522.00;;;;10261960;28;20231;-78
2023/08/16 10:19:34;;;;;;;8.30;4.53;;;;;27.90;101529.00;;;;10245452;28;20246;-77
2023/08/16 10:24:35;;;;;;;8.57;4.38;;;;;28.00;101528.00;;;;10267132;28;20624;-77
2023/08/16 10:29:44;;;;;;;9.70;4.05;;;;;27.90;101528.00;;;;10253152;28;20216;-78
2023/08/16 10:34:49;;;;;;;7.05;3.97;;;;;28.00;101523.00;;;;10248380;28;20307;-78
2023/08/16 10:39:50;;;;;;;7.07;3.55;;;;;28.40;101520.00;;;;10269961;28;20388;-78
2023/08/16 10:45:24;;;;;;;6.72;3.42;;;;;29.00;101513.00;;;;10250950;28;20207;-78
2023/08/16 10:50:34;;;;;;;5.95;3.30;;;;;29.60;101500.00;;;;10264277;28;20593;-77
2023/08/16 10:55:35;;;;;;;5.78;2.83;;;;;30.30;101509.00;;;;10264701;28;20707;-79
2023/08/16 11:00:39;;;;;;;4.95;3.08;;;;;30.50;101496.00;;;;10260579;28;20219;-78
2023/08/16 11:05:42;;;;;;;5.13;2.80;;;;;30.80;101494.00;;;;10215033;28;21084;-79
2023/08/16 11:10:44;;;;;;;6.75;2.97;;;;;30.20;101498.00;;;;10237128;28;20200;-78
2023/08/16 11:15:47;;;;;;;7.55;3.35;;;;;30.00;101488.00;;;;10264656;28;20211;-76
2023/08/16 11:20:49;;;;;;;5.97;3.65;;;;;30.10;101475.00;;;;10258648;28;21232;-78
2023/08/16 11:25:59;;;;;;;9.05;3.30;;;;;30.00;101484.00;;;;10256843;28;20208;-79
2023/08/16 11:31:03;;;;;;;6.60;2.90;;;;;29.30;101484.00;;;;10267290;28;20245;-78
2023/08/16 11:36:08;;;;;;;4.68;2.72;;;;;28.70;101479.00;;;;10264827;28;20238;-77
2023/08/16 11:41:10;;;;;;;3.63;2.22;;;;;28.30;101484.00;;;;10247686;28;20250;-79
2023/08/16 11:46:11;;;;;;;3.58;2.13;;;;;27.80;101494.00;;;;10261799;28;20211;-76
2023/08/16 11:51:13;;;;;;;7.85;2.70;;;;;27.70;101482.00;;;;10251662;28;20219;-78
2023/08/16 11:56:14;;;;;;;5.43;2.88;;;;;29.00;101480.00;;;;10244741;28;20214;-79
2023/08/16 12:01:21;;;;;;;6.57;2.60;;;;;30.40;101464.00;;;;10267083;28;20207;-76
2023/08/16 12:06:22;;;;;;;6.50;2.70;;;;;31.40;101471.00;;;;10270906;28;21959;-77
2023/08/16 12:11:32;;;;;;;7.57;3.33;;;;;31.40;101472.00;;;;10255960;28;20251;-77
2023/08/16 12:16:34;;;;;;;4.38;2.70;;;;;31.00;101469.00;;;;10272622;28;20389;-79
2023/08/16 12:21:35;;;;;;;4.78;3.28;;;;;31.10;101465.00;;;;10269700;28;20228;-77
2023/08/16 12:26:36;;;;;;;4.57;2.97;;;;;31.50;101452.00;;;;10245607;28;20219;-77
2023/08/16 12:31:38;;;;;;;5.00;2.72;;;;;31.40;101459.00;;;;10272231;28;20203;-78
2023/08/16 12:36:40;;;;;;;5.32;3.42;;;;;31.30;101444.00;;;;10254324;28;20270;-77
2023/08/16 12:41:41;;;;;;;5.00;3.70;;;;;32.10;101438.00;;;;10272470;28;20278;-78
2023/08/16 12:46:43;;;;;;;4.47;3.30;;;;;31.10;101442.00;;;;10269167;28;21208;-77
2023/08/16 12:51:44;;;;;;;8.30;4.13;;;;;31.00;101438.00;;;;10258336;28;20265;-78
2023/08/16 12:56:45;;;;;;;6.50;3.75;;;;;30.90;101440.00;;;;10262092;28;20645;-79
2023/08/16 13:01:47;;;;;;;5.72;4.10;;;;;30.90;101437.00;;;;10259224;28;20480;-79
2023/08/16 13:07:05;;;;;;;5.38;3.33;;;;;30.70;101425.00;;;;10266594;28;20243;-78
2023/08/16 13:12:09;;;;;;;8.52;3.80;;;;;31.10;101423.00;;;;10267247;28;20218;-78
2023/08/16 13:17:11;;;;;;;7.18;3.85;;;;;31.20;101435.00;;;;10255797;28;20253;-77
2023/08/16 13:22:26;;;;;;;5.40;4.90;;;;;31.30;101435.00;;;;10270048;28;21133;-78
2023/08/16 13:27:38;;;;;;;7.00;3.50;;;;;31.20;101437.00;;;;10243322;28;20215;-76
2023/08/16 13:32:43;;;;;;;7.35;4.25;;;;;31.10;101431.00;;;;10263614;28;21550;-77
2023/08/16 13:37:45;;;;;;;11.63;3.72;;;;;30.20;101437.00;;;;10245084;28;20212;-78
2023/08/16 13:42:59;;;;;;;7.78;3.10;;;;;29.70;101446.00;;;;10225876;28;20314;-79
2023/08/16 13:48:18;;;;;;;7.40;4.25;;;;;29.30;101447.00;;;;10245500;28;20317;-79
2023/08/16 13:53:19;;;;;;;5.05;2.95;;;;;29.70;101438.00;;;;10264723;28;20351;-78
2023/08/16 13:58:21;;;;;;;7.25;3.22;;;;;30.00;101435.00;;;;10259456;28;20222;-77
2023/08/16 14:03:22;;;;;;;4.72;3.10;;;;;29.50;101428.00;;;;10242325;28;20632;-79
2023/08/16 14:08:24;;;;;;;4.85;3.25;;;;;29.20;101425.00;;;;10262311;28;20203;-80
2023/08/16 14:13:29;;;;;;;7.13;3.20;;;;;29.00;101433.00;;;;10255992;28;20289;-78
2023/08/16 14:18:31;;;;;;;6.85;2.40;;;;;29.00;101429.00;;;;10255789;28;20779;-79
2023/08/16 14:23:32;;;;;;;5.95;3.28;;;;;29.10;101431.00;;;;10239359;28;20313;-79
2023/08/16 14:28:33;;;;;;;5.03;2.63;;;;;29.00;101422.00;;;;10247827;28;20219;-78
2023/08/16 14:33:35;;;;;;;4.60;2.80;;;;;28.60;101431.00;;;;10247670;28;20203;-79
2023/08/16 14:38:36;;;;;;;5.88;2.63;;;;;28.60;101433.00;;;;10262505;28;20476;-79
2023/08/16 14:43:51;;;;;;;5.25;2.70;;;;;29.10;101433.00;;;;10261434;28;20207;-79
2023/08/16 14:48:53;;;;;;;5.78;2.95;;;;;29.30;101436.00;;;;10266746;28;20877;-78
2023/08/16 14:53:55;;;;;;;6.38;3.13;;;;;28.90;101435.00;;;;10245861;28;20208;-77
2023/08/16 14:58:56;;;;;;;6.10;3.30;;;;;28.20;101423.00;;;;10240436;28;20205;-80
2023/08/16 15:03:58;;;;;;;4.43;3.17;;;;;28.00;101419.00;;;;10257909;28;20538;-78
2023/08/16 15:09:04;;;;;;;8.75;2.97;;;;;28.00;101420.00;;;;10260693;28;20324;-78
2023/08/16 15:14:09;;;;;;;4.60;3.05;;;;;27.90;101429.00;;;;10257356;28;20295;-78
2023/08/16 15:19:10;;;;;;;4.38;2.80;;;;;27.60;101427.00;;;;10245840;28;20242;-78
2023/08/16 15:24:12;;;;;;;7.45;3.00;;;;;27.30;101423.00;;;;10229428;28;20360;-78
2023/08/16 15:29:13;;;;;;;4.90;3.25;;;;;27.30;101430.00;;;;10261415;28;20213;-77
2023/08/16 15:34:14;;;;;;;5.20;3.10;;;;;27.20;101420.00;;;;10250230;28;20211;-77
2023/08/16 15:39:16;;;;;;;5.07;3.45;;;;;26.90;101423.00;;;;10265811;28;20211;-76
2023/08/16 15:44:18;;;;;;;6.22;3.08;;;;;26.70;101424.00;;;;10267534;28;20219;-76
2023/08/16 15:49:21;;;;;;;7.28;3.00;;;;;26.40;101421.00;;;;10268510;28;20567;-77
2023/08/16 15:54:22;;;;;;;8.68;3.15;;;;;26.10;101409.00;;;;10270504;28;20210;-76
2023/08/16 15:59:23;;;;;;;8.52;3.20;;;;;25.90;101403.00;;;;10266278;28;20208;-77
2023/08/16 16:04:29;;;;;;;7.45;3.35;;;;;25.80;101403.00;;;;10251985;28;20233;-77
2023/08/16 16:09:30;;;;;;;7.13;2.72;;;;;25.60;101391.00;;;;10251263;28;20938;-77
2023/08/16 16:14:32;;;;;;;5.35;2.50;;;;;25.60;101398.00;;;;10259787;28;20347;-78
2023/08/16 16:19:33;;;;;;;5.47;2.63;;;;;25.40;101390.00;;;;10240500;28;20303;-77
2023/08/16 16:24:34;;;;;;;6.43;3.03;;;;;25.20;101401.00;;;;10239232;28;20207;-77
2023/08/16 16:29:36;;;;;;;6.25;3.20;;;;;25.00;101404.00;;;;10238179;28;20218;-79
2023/08/16 16:34:37;;;;;;;4.43;2.80;;;;;24.90;101406.00;;;;10238618;28;20388;-77
2023/08/16 16:39:38;;;;;;;4.50;2.70;;;;;24.90;101405.00;;;;10241628;28;20902;-78
2023/08/16 16:44:40;;;;;;;8.30;2.95;;;;;24.90;101394.00;;;;10254365;28;20208;-78
2023/08/16 16:49:41;;;;;;;6.50;3.15;;;;;24.80;101396.00;;;;10235862;28;20211;-77
2023/08/16 16:54:42;;;;;;;5.47;2.88;;;;;24.80;101393.00;;;;10243987;28;20249;-79
2023/08/16 16:59:44;;;;;;;3.92;2.50;;;;;24.80;101387.00;;;;10261281;28;20704;-77
2023/08/16 17:04:45;;;;;;;9.43;2.80;;;;;24.60;101390.00;;;;10261482;28;21199;-77
2023/08/16 17:09:47;;;;;;;8.73;2.45;;;;;24.50;101373.00;;;;10260026;28;20237;-78
2023/08/16 17:14:48;;;;;;;5.05;2.72;;;;;24.40;101367.00;;;;10239976;28;20814;-78
2023/08/16 17:19:49;;;;;;;6.13;2.88;;;;;24.30;101375.00;;;;10261920;28;20206;-77
2023/08/16 17:24:51;;;;;;;5.70;2.72;;;;;24.00;101383.00;;;;10260228;28;20294;-76
2023/08/16 17:29:52;;;;;;;4.57;2.53;;;;;23.80;101388.00;;;;10242919;28;20264;-78
2023/08/16 17:34:54;;;;;;;6.22;2.80;;;;;23.60;101380.00;;;;10266630;28;20211;-78
2023/08/16 17:39:55;;;;;;;4.97;2.35;;;;;23.50;101385.00;;;;10262716;28;20196;-77
2023/08/16 17:44:56;;;;;;;3.70;2.55;;;;;23.40;101390.00;;;;10260407;28;20214;-77
2023/08/16 17:49:58;;;;;;;3.95;2.35;;;;;23.40;101389.00;;;;10260758;28;20262;-77
2023/08/16 17:54:59;;;;;;;7.05;2.72;;;;;23.30;101402.00;;;;10264077;28;20219;-78
2023/08/16 18:00:01;;;;;;;9.50;2.72;;;;;23.20;101402.00;;;;10268379;28;20241;-78
2023/08/16 18:05:06;;;;;;;4.60;2.25;;;;;23.00;101405.00;;;;10244870;28;20222;-79
2023/08/16 18:10:07;;;;;;;4.90;2.72;;;;;22.90;101395.00;;;;10241461;28;20813;-77
2023/08/16 18:15:09;;;;;;;4.53;2.50;;;;;22.80;101397.00;;;;10260678;28;20590;-78
2023/08/16 18:20:11;;;;;;;5.80;2.92;;;;;22.80;101399.00;;;;10259857;28;20255;-77
2023/08/16 18:25:13;;;;;;;3.42;2.30;;;;;22.80;101398.00;;;;10257834;28;20745;-77
2023/08/16 18:30:14;;;;;;;2.63;2.00;;;;;22.80;101402.00;;;;10243892;28;20211;-78
2023/08/16 18:35:15;;;;;;;4.10;2.75;;;;;22.60;101401.00;;;;10257817;28;20503;-77
2023/08/16 18:40:16;;;;;;;3.40;2.30;;;;;22.50;101414.00;;;;10254908;28;21366;-77
2023/08/16 18:45:18;;;;;;;3.60;2.10;;;;;22.40;101411.00;;;;10240450;28;20460;-78
2023/08/16 18:50:19;;;;;;;3.78;2.50;;;;;22.20;101417.00;;;;10241120;28;20265;-77
2023/08/16 18:55:21;;;;;;;4.20;2.72;;;;;22.10;101425.00;;;;10238501;28;20287;-77
2023/08/16 19:00:22;;;;;;;4.60;2.75;;;;;22.00;101424.00;;;;10240108;28;20513;-79
2023/08/16 19:05:24;;;;;;;8.82;2.97;;;;;21.90;101416.00;;;;10222876;28;20738;-77
2023/08/16 19:10:25;;;;;;;4.85;2.63;;;;;21.80;101427.00;;;;10256284;28;20652;-79
2023/08/16 19:15:26;;;;;;;7.47;3.08;;;;;21.60;101421.00;;;;10226132;28;20923;-78
2023/08/16 19:20:28;;;;;;;9.45;3.15;;;;;21.50;101428.00;;;;10257878;28;20223;-78
2023/08/16 19:25:29;;;;;;;8.45;2.83;;;;;21.40;101433.00;;;;10258031;28;20208;-78
2023/08/16 19:30:30;;;;;;;6.90;3.13;;;;;21.40;101438.00;;;;10259541;28;20277;-78
2023/08/16 19:35:31;;;;;;;7.00;2.90;;;;;21.40;101433.00;;;;10254177;28;20307;-77
2023/08/16 19:40:33;;;;;;;5.47;3.40;;;;;21.30;101434.00;;;;10258370;28;21189;-77
2023/08/16 19:45:34;;;;;;;3.55;2.75;;;;;21.20;101442.00;;;;10241629;28;20564;-77
2023/08/16 19:50:36;;;;;;;7.85;2.90;;;;;21.10;101436.00;;;;10254829;28;21010;-77
2023/08/16 19:55:37;;;;;;;4.78;3.22;;;;;21.00;101438.00;;;;10239669;28;20191;-77
2023/08/16 20:00:38;;;;;;;4.28;3.03;;;;;20.80;101445.00;;;;10223952;28;20600;-78
2023/08/16 20:05:40;;;;;;;9.55;3.20;;;;;20.70;101448.00;;;;10255901;28;20222;-76
2023/08/16 20:10:41;;;;;;;5.75;3.40;;;;;20.60;101444.00;;;;10223029;28;20871;-78
2023/08/16 20:15:42;;;;;;;6.63;2.88;;;;;20.60;101453.00;;;;10257633;28;20297;-76
2023/08/16 20:20:45;;;;;;;6.40;3.35;;;;;20.60;101446.00;;;;10254896;28;20752;-78
2023/08/16 20:25:46;;;;;;;8.38;3.58;;;;;20.60;101447.00;;;;10238176;28;20211;-78
2023/08/16 20:30:47;;;;;;;6.25;3.20;;;;;20.60;101450.00;;;;10260551;28;20810;-77
2023/08/16 20:35:49;;;;;;;8.77;3.20;;;;;20.60;101447.00;;;;10262588;28;20218;-77
2023/08/16 20:40:51;;;;;;;6.65;3.70;;;;;20.60;101446.00;;;;10265624;28;20238;-77
2023/08/16 20:45:52;;;;;;;5.05;3.40;;;;;20.60;101446.00;;;;10245443;28;21491;-76
2023/08/16 20:50:54;;;;;;;6.93;3.85;;;;;20.60;101444.00;;;;10245896;28;20287;-77
2023/08/16 20:55:55;;;;;;;5.25;3.35;;;;;20.50;101450.00;;;;10246657;28;20353;-76
2023/08/16 21:00:56;;;;;;;4.57;3.00;;;;;20.50;101449.00;;;;10263363;28;20322;-77
2023/08/16 21:05:58;;;;;;;4.63;3.63;;;;;20.40;101446.00;;;;10260959;28;20207;-76
2023/08/16 21:10:59;;;;;;;7.88;4.25;;;;;20.40;101443.00;;;;10260817;28;20207;-77
2023/08/16 21:16:00;;;;;;;4.85;3.60;;;;;20.30;101444.00;;;;10260715;28;20218;-78
2023/08/16 21:21:01;;;;;;;7.18;4.00;;;;;20.30;101447.00;;;;10224603;28;20293;-77
2023/08/16 21:26:03;;;;;;;4.93;3.75;;;;;20.20;101447.00;;;;10245239;28;20207;-77
2023/08/16 21:31:04;;;;;;;8.27;3.97;;;;;20.20;101446.00;;;;10245224;28;20254;-77
2023/08/16 21:36:06;;;;;;;4.82;3.72;;;;;20.20;101443.00;;;;10262820;28;20211;-77
2023/08/16 21:41:07;;;;;;;4.35;3.50;;;;;20.20;101441.00;;;;10243603;28;20224;-77
2023/08/16 21:46:08;;;;;;;5.82;3.83;;;;;20.20;101435.00;;;;10261016;28;20214;-76
2023/08/16 21:51:10;;;;;;;7.55;4.10;;;;;20.10;101440.00;;;;10262572;28;21378;-77
2023/08/16 21:56:11;;;;;;;4.15;3.70;;;;;20.10;101432.00;;;;10212950;28;20214;-77
2023/08/16 22:01:13;;;;;;;5.68;3.90;;;;;20.00;101433.00;;;;10260384;28;20298;-76
2023/08/16 22:06:14;;;;;;;5.28;3.63;;;;;19.90;101434.00;;;;10263175;28;20206;-76
2023/08/16 22:11:16;;;;;;;6.10;3.78;;;;;19.90;101433.00;;;;10243550;28;20417;-78
2023/08/16 22:16:17;;;;;;;5.18;3.33;;;;;19.90;101424.00;;;;10259598;28;20219;-77
2023/08/16 22:21:18;;;;;;;5.20;3.50;;;;;19.90;101428.00;;;;10261514;28;20276;-78
2023/08/16 22:26:20;;;;;;;4.72;3.53;;;;;19.90;101415.00;;;;10214923;28;20562;-77
2023/08/16 22:31:22;;;;;;;6.10;3.45;;;;;19.90;101416.00;;;;10243436;28;20570;-76
2023/08/16 22:36:24;;;;;;;5.38;3.45;;;;;19.80;101416.00;;;;10260279;28;20856;-76
2023/08/16 22:41:25;;;;;;;5.45;3.47;;;;;19.60;101418.00;;;;10241344;28;20258;-79
2023/08/16 22:46:27;;;;;;;4.85;3.47;;;;;19.40;101412.00;;;;10260108;28;20204;-76
2023/08/16 22:51:28;;;;;;;6.88;3.60;;;;;19.30;101409.00;;;;10239165;28;20199;-77
2023/08/16 22:56:29;;;;;;;6.32;3.53;;;;;19.30;101413.00;;;;10255112;28;20235;-77
2023/08/16 23:01:30;;;;;;;5.68;2.78;;;;;19.20;101413.00;;;;10258777;28;20344;-78
2023/08/16 23:06:34;;;;;;;4.65;3.33;;;;;19.20;101410.00;;;;10241728;28;20404;-77
2023/08/16 23:11:35;;;;;;;4.13;2.80;;;;;19.20;101410.00;;;;10256366;28;20218;-77
2023/08/16 23:16:36;;;;;;;6.15;3.45;;;;;19.10;101415.00;;;;10239609;28;20215;-76
2023/08/16 23:21:38;;;;;;;5.05;2.80;;;;;19.10;101406.00;;;;10258170;28;20223;-77
2023/08/16 23:26:39;;;;;;;4.88;3.03;;;;;19.10;101406.00;;;;10254389;28;20728;-77
2023/08/16 23:31:40;;;;;;;6.43;3.15;;;;;19.10;101406.00;;;;10237839;28;20971;-76
2023/08/16 23:36:42;;;;;;;5.20;2.70;;;;;19.20;101409.00;;;;10252931;28;20199;-77
2023/08/16 23:41:43;;;;;;;6.55;2.88;;;;;19.20;101409.00;;;;10256551;28;20257;-77
2023/08/16 23:46:44;;;;;;;3.70;2.28;;;;;19.30;101398.00;;;;10236930;28;20199;-77
2023/08/16 23:51:46;;;;;;;4.22;2.38;;;;;19.30;101389.00;;;;10236123;28;21650;-77
2023/08/16 23:56:47;;;;;;;4.65;2.50;;;;;19.30;101383.00;;;;10256181;28;20214;-78
